Time;durP1;ratioP1;P1;durP2;ratioP2;P2;SDS_P1;SDS_P2;PMS_P1;PMS_P2;Temp;Humidity;BMP_temperature;BMP_pressure;BME280_temperature;BME280_humidity;BME280_pressure;Samples;Min_cycle;Max_cycle;Signal;HPM_P1;HPM_P2
2021/04/10 00:00:34;;;;;;;2.63;2.43;;;10.80;48.70;;;;;;5098829;28;20192;-43
2021/04/10 00:03:00;;;;;;;3.70;2.83;;;10.80;48.90;;;;;;5099053;28;20220;-43
2021/04/10 00:05:27;;;;;;;6.20;3.30;;;10.70;49.00;;;;;;5099443;28;20696;-44
2021/04/10 00:07:52;;;;;;;3.30;2.57;;;10.70;49.10;;;;;;5098874;28;20191;-43
2021/04/10 00:10:20;;;;;;;3.50;2.73;;;10.60;49.30;;;;;;5098640;28;20510;-41
2021/04/10 00:12:46;;;;;;;4.90;3.20;;;10.60;49.40;;;;;;5098670;28;20180;-43
2021/04/10 00:15:14;;;;;;;4.97;3.10;;;10.60;49.60;;;;;;5098555;28;20485;-43
2021/04/10 00:17:40;;;;;;;4.20;2.63;;;10.60;49.50;;;;;;5098662;28;20292;-43
2021/04/10 00:20:15;;;;;;;5.70;2.53;;;10.60;49.70;;;;;;5098946;28;20422;-43
2021/04/10 00:22:41;;;;;;;4.97;2.87;;;10.50;49.80;;;;;;5098978;28;20473;-43
2021/04/10 00:25:08;;;;;;;5.17;2.47;;;10.50;49.80;;;;;;5099171;28;20419;-43
2021/04/10 00:27:35;;;;;;;3.77;2.60;;;10.50;49.90;;;;;;5098530;28;20718;-44
2021/04/10 00:30:01;;;;;;;3.83;2.80;;;10.50;49.90;;;;;;5098811;28;20513;-42
2021/04/10 00:32:26;;;;;;;4.40;3.10;;;10.40;50.10;;;;;;5098478;28;20634;-43
2021/04/10 00:34:52;;;;;;;6.83;3.03;;;10.50;50.30;;;;;;5098591;28;20567;-43
2021/04/10 00:37:18;;;;;;;4.40;2.43;;;10.40;50.20;;;;;;5098751;28;20176;-43
2021/04/10 00:39:43;;;;;;;4.60;2.57;;;10.40;50.50;;;;;;5098420;28;20306;-43
2021/04/10 00:42:09;;;;;;;5.17;2.83;;;10.40;50.50;;;;;;5098722;28;20827;-43
2021/04/10 00:44:35;;;;;;;5.47;3.20;;;10.40;51.00;;;;;;5098174;28;20478;-43
2021/04/10 00:47:01;;;;;;;3.70;3.40;;;10.40;50.60;;;;;;5098248;28;20204;-42
2021/04/10 00:49:26;;;;;;;5.17;2.80;;;10.40;50.60;;;;;;5099036;28;20557;-43
2021/04/10 00:51:53;;;;;;;4.13;2.63;;;10.40;50.70;;;;;;5097862;28;20445;-41
2021/04/10 00:54:19;;;;;;;5.03;2.97;;;10.40;50.60;;;;;;5098459;28;20188;-43
2021/04/10 00:56:45;;;;;;;3.97;2.50;;;10.50;50.60;;;;;;5098732;28;20812;-41
2021/04/10 00:59:11;;;;;;;3.47;2.57;;;10.50;50.60;;;;;;5098494;28;20479;-42
2021/04/10 01:01:38;;;;;;;6.53;2.80;;;10.60;50.80;;;;;;5098170;28;20473;-44
2021/04/10 01:04:04;;;;;;;4.80;2.77;;;10.60;50.80;;;;;;5080066;28;20472;-43
2021/04/10 01:06:31;;;;;;;5.63;2.47;;;10.60;50.70;;;;;;5098113;28;20502;-42
2021/04/10 01:08:56;;;;;;;5.10;2.80;;;10.70;50.80;;;;;;5098566;28;20407;-43
2021/04/10 01:11:48;;;;;;;4.50;3.20;;;10.60;50.90;;;;;;5097247;28;20495;-42
2021/04/10 01:14:28;;;;;;;4.77;2.73;;;10.60;50.90;;;;;;5097368;28;20558;-43
2021/04/10 01:17:00;;;;;;;2.07;1.87;;;10.70;52.40;;;;;;5097663;28;20461;-43
2021/04/10 01:19:44;;;;;;;3.13;2.30;;;10.90;54.40;;;;;;5079409;28;20434;-41
2021/04/10 01:22:18;;;;;;;4.17;2.40;;;11.00;52.30;;;;;;5097857;28;20554;-40
2021/04/10 01:24:58;;;;;;;6.80;2.70;;;10.70;51.50;;;;;;5097773;28;20426;-43
2021/04/10 01:27:40;;;;;;;5.23;2.40;;;10.60;51.70;;;;;;5097961;28;20488;-43
2021/04/10 01:30:06;;;;;;;9.83;2.90;;;10.50;51.90;;;;;;5080363;28;20565;-41
2021/04/10 01:32:35;;;;;;;2.43;2.17;;;10.40;52.20;;;;;;5097403;28;20426;-43
2021/04/10 01:35:08;;;;;;;4.03;2.70;;;10.40;52.50;;;;;;5080459;28;20241;-41
2021/04/10 01:37:39;;;;;;;5.70;2.87;;;10.40;52.60;;;;;;5097105;28;20450;-43
2021/04/10 01:40:06;;;;;;;3.33;2.10;;;10.40;52.70;;;;;;5079335;28;20839;-43
2021/04/10 01:42:32;;;;;;;11.13;2.67;;;10.40;52.70;;;;;;5097905;28;20912;-43
2021/04/10 01:45:00;;;;;;;2.90;2.40;;;10.40;52.60;;;;;;5079737;28;20501;-43
2021/04/10 01:47:26;;;;;;;4.30;2.70;;;10.50;52.70;;;;;;5079789;28;20441;-43
2021/04/10 01:49:52;;;;;;;4.33;2.57;;;10.50;52.70;;;;;;5097552;28;20678;-43
2021/04/10 01:52:19;;;;;;;9.90;2.70;;;10.50;52.90;;;;;;5080103;28;20758;-43
2021/04/10 01:54:45;;;;;;;4.23;2.53;;;10.50;52.90;;;;;;5079906;28;20809;-42
2021/04/10 01:57:11;;;;;;;4.33;2.10;;;10.40;53.00;;;;;;5097667;28;20430;-42
2021/04/10 01:59:42;;;;;;;4.93;2.40;;;10.40;53.10;;;;;;5097491;28;20414;-43
2021/04/10 02:02:08;;;;;;;3.00;2.10;;;10.40;53.20;;;;;;5080339;28;20426;-41
2021/04/10 02:04:38;;;;;;;4.33;2.10;;;10.40;53.30;;;;;;5096673;28;20477;-43
2021/04/10 02:07:04;;;;;;;5.20;2.17;;;10.40;53.40;;;;;;5079496;28;20430;-42
2021/04/10 02:09:32;;;;;;;5.03;2.60;;;10.40;53.50;;;;;;5079270;28;20840;-43
2021/04/10 02:11:58;;;;;;;3.17;2.00;;;10.40;53.70;;;;;;5079517;28;20212;-42
2021/04/10 02:14:25;;;;;;;3.63;2.00;;;10.40;53.80;;;;;;5079098;28;20812;-41
2021/04/10 02:16:51;;;;;;;5.17;2.20;;;10.40;53.90;;;;;;5078245;28;20690;-41
2021/04/10 02:19:17;;;;;;;3.60;2.47;;;10.40;54.00;;;;;;5080781;28;20425;-42
2021/04/10 02:21:43;;;;;;;3.43;2.17;;;10.40;54.20;;;;;;5082750;28;20487;-43
2021/04/10 02:24:10;;;;;;;4.80;2.40;;;10.30;54.40;;;;;;5100898;28;20465;-42
2021/04/10 02:26:36;;;;;;;7.83;2.17;;;10.30;54.60;;;;;;5100689;28;20437;-42
2021/04/10 02:29:03;;;;;;;5.03;2.00;;;10.40;54.80;;;;;;5100071;28;20422;-43
2021/04/10 02:31:40;;;;;;;4.30;2.13;;;10.30;54.90;;;;;;5100916;28;20712;-41
2021/04/10 02:34:15;;;;;;;3.70;2.63;;;10.40;55.00;;;;;;5100640;28;20442;-41
2021/04/10 02:36:42;;;;;;;2.63;2.00;;;10.40;55.50;;;;;;5082967;28;20551;-43
2021/04/10 02:39:09;;;;;;;4.10;2.00;;;10.30;55.20;;;;;;5082644;28;20430;-42
2021/04/10 02:41:35;;;;;;;3.73;2.27;;;10.40;55.40;;;;;;5100597;28;20607;-43
2021/04/10 02:44:09;;;;;;;3.30;2.00;;;10.50;55.50;;;;;;5082689;28;20529;-43
2021/04/10 02:46:44;;;;;;;3.90;2.20;;;10.50;55.40;;;;;;5082874;28;20537;-43
2021/04/10 02:49:14;;;;;;;3.00;1.93;;;10.50;55.50;;;;;;5100594;28;20432;-42
2021/04/10 02:51:51;;;;;;;1.93;1.80;;;10.50;55.70;;;;;;5082883;28;20430;-43
2021/04/10 02:54:20;;;;;;;3.30;2.03;;;10.50;55.80;;;;;;5083011;28;20450;-43
2021/04/10 02:56:59;;;;;;;3.30;2.43;;;10.60;55.80;;;;;;5100594;28;20754;-43
2021/04/10 02:59:25;;;;;;;3.10;2.00;;;10.60;55.90;;;;;;5100673;28;20441;-42
2021/04/10 03:01:51;;;;;;;3.60;2.23;;;10.60;56.00;;;;;;5082751;28;20436;-42
2021/04/10 03:04:18;;;;;;;4.30;2.53;;;10.50;56.10;;;;;;5082393;28;20474;-43
2021/04/10 03:06:44;;;;;;;3.40;1.83;;;10.60;56.30;;;;;;5100826;28;20437;-42
2021/04/10 03:09:09;;;;;;;3.93;2.10;;;10.60;56.40;;;;;;5082912;28;20501;-43
2021/04/10 03:11:36;;;;;;;3.27;1.80;;;10.60;56.30;;;;;;5100148;28;20465;-42
2021/04/10 03:14:04;;;;;;;4.27;2.20;;;10.70;56.40;;;;;;5100198;28;20565;-41
2021/04/10 03:16:30;;;;;;;6.27;2.07;;;10.60;56.60;;;;;;5082319;28;20430;-41
2021/04/10 03:18:56;;;;;;;2.10;1.90;;;10.70;56.90;;;;;;5082644;28;20406;-42
2021/04/10 03:21:22;;;;;;;2.10;1.67;;;10.60;57.00;;;;;;5082569;28;20592;-42
2021/04/10 03:23:48;;;;;;;3.60;2.00;;;10.60;57.20;;;;;;5099533;28;20458;-42
2021/04/10 03:26:14;;;;;;;2.17;1.97;;;10.50;57.60;;;;;;5100005;28;20429;-43
2021/04/10 03:28:41;;;;;;;4.60;1.93;;;10.50;57.90;;;;;;5082137;28;20191;-43
2021/04/10 03:31:07;;;;;;;2.90;1.80;;;10.60;58.70;;;;;;5081314;28;20409;-42
2021/04/10 03:33:34;;;;;;;5.97;1.73;;;10.50;58.40;;;;;;5081768;28;20446;-43
2021/04/10 03:36:01;;;;;;;2.43;1.47;;;10.50;58.70;;;;;;5099628;28;20426;-42
2021/04/10 03:38:27;;;;;;;6.20;2.40;;;10.60;59.00;;;;;;5100013;28;20430;-43
2021/04/10 03:40:54;;;;;;;2.77;1.43;;;10.50;59.20;;;;;;5099331;28;20508;-41
2021/04/10 03:43:20;;;;;;;4.60;1.63;;;10.50;59.80;;;;;;5099826;28;20784;-43
2021/04/10 03:45:45;;;;;;;3.23;1.77;;;10.50;60.40;;;;;;5099153;28;20422;-42
2021/04/10 03:48:12;;;;;;;2.10;1.60;;;10.50;60.70;;;;;;5099063;28;20450;-42
2021/04/10 03:50:39;;;;;;;6.27;2.30;;;10.40;61.30;;;;;;5099923;28;20622;-40
2021/04/10 03:53:05;;;;;;;5.73;1.90;;;10.50;61.70;;;;;;5099330;28;20434;-42
2021/04/10 03:55:31;;;;;;;5.80;1.60;;;10.50;61.80;;;;;;5099176;28;20418;-41
2021/04/10 03:58:01;;;;;;;4.20;1.73;;;10.50;62.10;;;;;;5098221;28;20438;-41
2021/04/10 04:00:27;;;;;;;2.87;1.53;;;10.40;62.40;;;;;;5079763;28;20429;-42
2021/04/10 04:02:53;;;;;;;3.30;2.00;;;10.40;63.00;;;;;;5097668;28;20534;-43
2021/04/10 04:05:19;;;;;;;5.17;2.43;;;10.40;63.50;;;;;;5097843;28;20418;-43
2021/04/10 04:07:45;;;;;;;2.77;2.00;;;10.40;64.70;;;;;;5097569;28;20882;-42
2021/04/10 04:10:11;;;;;;;2.90;1.87;;;10.30;65.90;;;;;;5098005;28;20203;-42
2021/04/10 04:12:37;;;;;;;5.17;2.27;;;10.30;66.30;;;;;;5098059;28;20189;-42
2021/04/10 04:15:04;;;;;;;3.53;1.87;;;10.20;66.50;;;;;;5098181;28;20557;-43
2021/04/10 04:17:29;;;;;;;3.43;1.93;;;10.20;66.70;;;;;;5079489;28;20185;-43
2021/04/10 04:19:55;;;;;;;3.53;1.93;;;10.20;67.00;;;;;;5097748;28;20517;-43
2021/04/10 04:22:21;;;;;;;2.30;1.70;;;10.20;67.20;;;;;;5098016;28;20179;-43
2021/04/10 04:24:47;;;;;;;2.90;1.83;;;10.20;67.70;;;;;;5096893;28;20421;-43
2021/04/10 04:27:12;;;;;;;2.67;1.60;;;10.20;67.70;;;;;;5097221;28;20470;-43
2021/04/10 04:29:38;;;;;;;3.47;1.97;;;10.20;67.80;;;;;;5098409;28;20180;-41
2021/04/10 04:32:04;;;;;;;6.60;2.27;;;10.20;68.10;;;;;;5097722;28;20253;-44
2021/04/10 04:34:30;;;;;;;2.83;1.70;;;10.10;68.10;;;;;;5098670;28;20520;-43
2021/04/10 04:36:55;;;;;;;4.70;1.90;;;10.10;68.10;;;;;;5098417;28;20521;-43
2021/04/10 04:39:21;;;;;;;2.67;1.87;;;10.00;68.10;;;;;;5098449;28;20230;-43
2021/04/10 04:41:47;;;;;;;5.93;1.80;;;9.90;70.20;;;;;;5098405;28;20188;-42
2021/04/10 04:44:12;;;;;;;3.13;1.57;;;9.80;70.40;;;;;;5098042;28;20470;-43
2021/04/10 04:46:39;;;;;;;2.13;1.37;;;9.80;71.20;;;;;;5098484;28;20185;-43
2021/04/10 04:49:05;;;;;;;5.63;1.83;;;9.70;72.70;;;;;;5098002;28;20187;-44
2021/04/10 04:51:31;;;;;;;2.80;2.20;;;9.70;74.50;;;;;;5098224;28;20438;-42
2021/04/10 04:53:56;;;;;;;3.87;2.00;;;9.60;78.00;;;;;;5098080;28;20426;-43
2021/04/10 04:56:22;;;;;;;2.90;2.07;;;9.50;81.40;;;;;;5097581;28;20500;-43
2021/04/10 04:58:48;;;;;;;3.17;2.10;;;9.40;84.30;;;;;;5097567;28;20435;-43
2021/04/10 05:01:14;;;;;;;3.30;1.77;;;9.20;88.70;;;;;;5097628;28;20203;-40
2021/04/10 05:03:40;;;;;;;3.70;2.10;;;9.20;90.10;;;;;;5088666;28;20462;-42
2021/04/10 05:06:06;;;;;;;7.23;2.20;;;9.10;91.00;;;;;;5098987;28;20513;-43
2021/04/10 05:08:32;;;;;;;4.47;2.17;;;8.90;91.40;;;;;;5098360;28;20463;-43
2021/04/10 05:10:57;;;;;;;6.53;2.10;;;8.80;92.20;;;;;;5097724;28;20419;-43
2021/04/10 05:13:23;;;;;;;2.97;2.00;;;8.80;92.40;;;;;;5097927;28;20422;-41
2021/04/10 05:15:49;;;;;;;4.53;2.10;;;8.80;91.80;;;;;;5098050;28;20231;-42
2021/04/10 05:18:15;;;;;;;4.10;1.90;;;8.80;92.00;;;;;;5097468;28;20639;-41
2021/04/10 05:20:40;;;;;;;3.93;2.30;;;8.80;91.70;;;;;;5098519;28;20178;-43
2021/04/10 05:23:06;;;;;;;5.57;2.70;;;8.80;91.70;;;;;;5098056;28;20883;-43
2021/04/10 05:25:32;;;;;;;4.20;2.30;;;8.80;91.40;;;;;;5080058;28;20263;-43
2021/04/10 05:27:58;;;;;;;4.43;2.60;;;8.80;91.50;;;;;;5097962;28;20181;-42
2021/04/10 05:30:24;;;;;;;3.37;2.37;;;8.80;91.60;;;;;;5098197;28;20430;-42
2021/04/10 05:32:49;;;;;;;5.53;2.40;;;8.80;91.40;;;;;;5098412;28;20438;-43
2021/04/10 05:35:15;;;;;;;2.70;2.03;;;8.80;91.30;;;;;;5097680;28;20442;-43
2021/04/10 05:37:42;;;;;;;4.40;1.87;;;8.70;91.30;;;;;;5098244;28;20181;-43
2021/04/10 05:40:09;;;;;;;2.70;2.40;;;8.80;91.10;;;;;;5097789;28;20693;-43
2021/04/10 05:42:34;;;;;;;4.00;2.00;;;8.80;90.70;;;;;;5097765;28;20514;-43
2021/04/10 05:45:00;;;;;;;2.70;2.20;;;8.80;90.70;;;;;;5097146;28;20443;-42
2021/04/10 05:47:26;;;;;;;2.67;1.97;;;8.80;90.60;;;;;;5096395;28;20180;-43
2021/04/10 05:49:52;;;;;;;3.40;1.60;;;8.80;90.40;;;;;;5097387;28;20180;-44
2021/04/10 05:52:18;;;;;;;6.43;1.90;;;8.80;90.40;;;;;;5097350;28;20760;-43
2021/04/10 05:54:43;;;;;;;4.07;2.50;;;8.90;90.10;;;;;;5081628;28;20186;-41
2021/04/10 05:57:09;;;;;;;5.13;2.13;;;8.90;89.70;;;;;;5066811;28;20884;-43
2021/04/10 05:59:35;;;;;;;3.10;1.90;;;8.90;89.10;;;;;;5100690;28;20204;-43
2021/04/10 06:02:05;;;;;;;3.10;2.20;;;9.00;89.10;;;;;;5100790;28;20474;-42
2021/04/10 06:04:41;;;;;;;3.40;2.30;;;9.00;89.00;;;;;;5100289;28;20208;-42
2021/04/10 06:07:06;;;;;;;4.87;2.20;;;9.10;89.00;;;;;;5100787;28;20430;-42
2021/04/10 06:09:32;;;;;;;2.10;1.60;;;9.10;88.80;;;;;;5100873;28;20447;-42
2021/04/10 06:11:58;;;;;;;3.13;1.87;;;9.10;88.80;;;;;;5100673;28;20414;-39
2021/04/10 06:14:23;;;;;;;3.30;2.13;;;9.10;89.10;;;;;;5094875;28;20228;-41
2021/04/10 06:16:50;;;;;;;4.17;2.13;;;9.00;89.00;;;;;;5100603;28;20180;-40
2021/04/10 06:19:16;;;;;;;3.83;2.13;;;9.10;89.40;;;;;;5100238;28;20176;-39
2021/04/10 06:21:43;;;;;;;2.23;1.80;;;9.00;89.50;;;;;;5100036;28;20868;-41
2021/04/10 06:24:10;;;;;;;6.30;2.33;;;9.20;89.30;;;;;;5099185;28;20728;-39
2021/04/10 06:26:36;;;;;;;3.47;2.00;;;9.10;89.40;;;;;;5100478;28;20433;-41
2021/04/10 06:29:02;;;;;;;4.23;2.17;;;9.20;89.80;;;;;;5100746;28;20406;-40
2021/04/10 06:31:27;;;;;;;3.40;2.07;;;9.10;89.80;;;;;;5100779;28;20851;-42
2021/04/10 06:33:53;;;;;;;4.63;2.37;;;9.10;89.90;;;;;;5099972;28;20497;-42
2021/04/10 06:36:19;;;;;;;2.93;1.80;;;9.20;89.90;;;;;;5100875;28;20948;-41
2021/04/10 06:38:44;;;;;;;3.00;1.90;;;9.10;89.90;;;;;;5099761;28;20570;-40
2021/04/10 06:41:14;;;;;;;3.03;2.00;;;9.20;90.00;;;;;;5100707;28;20212;-41
2021/04/10 06:43:43;;;;;;;3.50;1.70;;;9.20;90.20;;;;;;5100155;28;20200;-40
2021/04/10 06:46:10;;;;;;;2.73;2.17;;;9.20;90.10;;;;;;5100952;28;20676;-42
2021/04/10 06:48:39;;;;;;;3.53;2.33;;;9.20;90.00;;;;;;5099419;28;20406;-41
2021/04/10 06:51:06;;;;;;;5.70;2.50;;;9.20;90.00;;;;;;5100125;28;20467;-41
2021/04/10 06:53:47;;;;;;;5.47;2.43;;;9.30;89.90;;;;;;5098554;28;20449;-42
2021/04/10 06:56:20;;;;;;;6.80;2.20;;;9.30;90.00;;;;;;5099812;28;20733;-41
2021/04/10 06:58:58;;;;;;;2.37;2.17;;;9.40;89.70;;;;;;5100339;28;20428;-39
2021/04/10 07:01:24;;;;;;;3.80;1.63;;;9.40;89.60;;;;;;5098056;28;20418;-38
2021/04/10 07:03:51;;;;;;;2.80;1.70;;;9.30;89.80;;;;;;5078611;28;20535;-42
2021/04/10 07:06:18;;;;;;;2.70;2.07;;;9.30;90.00;;;;;;5097707;28;20691;-41
2021/04/10 07:08:45;;;;;;;2.90;2.27;;;9.30;90.00;;;;;;5096747;28;20411;-38
2021/04/10 07:11:13;;;;;;;3.53;2.00;;;9.30;90.00;;;;;;5096882;28;20430;-41
2021/04/10 07:13:38;;;;;;;3.53;1.90;;;9.40;89.80;;;;;;5097224;28;20426;-40
2021/04/10 07:16:05;;;;;;;5.80;2.90;;;9.50;89.70;;;;;;5097642;28;20474;-41
2021/04/10 07:18:31;;;;;;;4.27;2.10;;;9.40;89.70;;;;;;5099967;28;20446;-42
2021/04/10 07:21:19;;;;;;;2.43;1.70;;;9.40;89.70;;;;;;5099517;28;20407;-37
2021/04/10 07:23:46;;;;;;;3.70;2.37;;;9.40;89.80;;;;;;5099928;28;20458;-40
2021/04/10 07:26:12;;;;;;;6.03;1.87;;;9.30;89.90;;;;;;5099963;28;20421;-40
2021/04/10 07:28:37;;;;;;;2.60;1.73;;;9.30;90.20;;;;;;5099414;28;20410;-41
2021/04/10 07:31:11;;;;;;;4.03;2.23;;;9.30;90.40;;;;;;5099397;28;20402;-40
2021/04/10 07:33:42;;;;;;;2.03;1.83;;;9.30;90.30;;;;;;5099457;28;20263;-41
2021/04/10 07:36:15;;;;;;;4.10;2.20;;;9.30;90.50;;;;;;5098222;28;20446;-40
2021/04/10 07:38:42;;;;;;;2.50;1.60;;;9.30;90.60;;;;;;5090057;28;20435;-41
2021/04/10 07:41:14;;;;;;;3.30;2.20;;;9.30;91.10;;;;;;5096779;28;20488;-41
2021/04/10 07:43:42;;;;;;;3.70;2.60;;;9.20;91.80;;;;;;5099319;28;20469;-41
2021/04/10 07:46:23;;;;;;;4.17;1.97;;;9.10;92.00;;;;;;5099328;28;20425;-40
2021/04/10 07:49:02;;;;;;;3.57;2.17;;;9.10;92.40;;;;;;5081475;28;20442;-38
2021/04/10 07:51:29;;;;;;;3.30;1.80;;;9.20;92.10;;;;;;5097934;28;20737;-41
2021/04/10 07:53:56;;;;;;;3.13;1.83;;;9.30;92.10;;;;;;5097188;28;20441;-41
2021/04/10 07:56:21;;;;;;;3.70;3.17;;;9.30;91.90;;;;;;5077913;28;20510;-40
2021/04/10 07:58:47;;;;;;;3.10;2.77;;;9.30;91.70;;;;;;5095724;28;20414;-40
2021/04/10 08:01:14;;;;;;;3.33;2.30;;;9.30;91.90;;;;;;5095182;28;20511;-41
2021/04/10 08:03:50;;;;;;;5.03;2.60;;;9.40;91.60;;;;;;5096047;28;20212;-42
2021/04/10 08:06:20;;;;;;;3.50;2.00;;;9.40;91.40;;;;;;5096556;28;20528;-40
2021/04/10 08:08:52;;;;;;;4.57;2.20;;;9.30;91.60;;;;;;5079960;28;20419;-41
2021/04/10 08:11:42;;;;;;;4.40;2.37;;;9.40;91.50;;;;;;5096204;28;20438;-42
2021/04/10 08:14:10;;;;;;;2.27;1.80;;;9.40;91.50;;;;;;5096267;28;20427;-42
2021/04/10 08:16:41;;;;;;;5.30;2.27;;;9.40;91.70;;;;;;5096277;28;20504;-42
2021/04/10 08:19:07;;;;;;;2.63;2.00;;;9.50;91.40;;;;;;5097694;28;20422;-42
2021/04/10 08:21:32;;;;;;;2.23;1.80;;;9.60;91.40;;;;;;5097949;28;20453;-42
2021/04/10 08:24:21;;;;;;;2.43;1.80;;;9.70;91.30;;;;;;5080702;28;20907;-41
2021/04/10 08:26:48;;;;;;;2.47;1.80;;;9.70;91.00;;;;;;5097848;28;20181;-38
2021/04/10 08:29:14;;;;;;;2.10;1.80;;;9.80;90.90;;;;;;5097339;28;20711;-42
2021/04/10 08:31:39;;;;;;;3.00;2.23;;;9.80;90.90;;;;;;5080340;28;20441;-41
2021/04/10 08:34:05;;;;;;;3.07;2.10;;;9.90;91.20;;;;;;5098822;28;20184;-42
2021/04/10 08:36:32;;;;;;;3.53;1.70;;;9.90;91.20;;;;;;5080825;28;20310;-40
2021/04/10 08:38:58;;;;;;;2.70;2.20;;;9.70;91.30;;;;;;5096305;28;20506;-42
2021/04/10 08:41:28;;;;;;;2.27;2.07;;;9.60;91.50;;;;;;5096642;28;20450;-41
2021/04/10 08:43:54;;;;;;;3.53;2.13;;;9.80;91.40;;;;;;5098036;28;20752;-39
2021/04/10 08:46:21;;;;;;;4.73;2.07;;;9.90;91.10;;;;;;5080584;28;20479;-40
2021/04/10 08:48:55;;;;;;;2.50;2.07;;;9.90;90.80;;;;;;5079998;28;20418;-40
2021/04/10 08:51:21;;;;;;;3.90;1.70;;;9.80;90.70;;;;;;5080863;28;20433;-40
2021/04/10 08:53:49;;;;;;;4.10;1.93;;;10.00;89.40;;;;;;5080825;28;20728;-41
2021/04/10 08:56:21;;;;;;;3.70;2.67;;;10.00;88.90;;;;;;5080201;28;20499;-41
2021/04/10 08:58:48;;;;;;;2.30;1.27;;;10.10;88.30;;;;;;5079552;28;20427;-40
2021/04/10 09:01:19;;;;;;;2.03;1.60;;;10.20;87.80;;;;;;5096565;28;20944;-40
2021/04/10 09:03:48;;;;;;;2.87;1.70;;;10.10;86.80;;;;;;5077479;28;20470;-41
2021/04/10 09:06:15;;;;;;;2.60;1.53;;;10.20;85.90;;;;;;5095633;28;20445;-42
2021/04/10 09:08:41;;;;;;;2.57;1.40;;;10.30;84.80;;;;;;5095135;28;20817;-41
2021/04/10 09:11:10;;;;;;;2.33;1.40;;;10.50;84.10;;;;;;5095307;28;20427;-39
2021/04/10 09:13:50;;;;;;;2.07;1.57;;;10.40;83.70;;;;;;5095546;28;20411;-42
2021/04/10 09:16:25;;;;;;;1.50;1.03;;;10.60;83.90;;;;;;5097551;28;20887;-41
2021/04/10 09:18:53;;;;;;;4.20;1.43;;;10.50;82.30;;;;;;5098274;28;20441;-41
2021/04/10 09:21:24;;;;;;;3.90;1.97;;;10.60;82.80;;;;;;5097470;28;20529;-42
2021/04/10 09:23:50;;;;;;;1.73;1.37;;;10.70;82.70;;;;;;5097682;28;20470;-42
2021/04/10 09:26:17;;;;;;;3.00;1.50;;;10.80;82.40;;;;;;5097118;28;20837;-42
2021/04/10 09:28:56;;;;;;;2.17;1.80;;;11.10;82.10;;;;;;5103892;28;20180;-38
2021/04/10 09:31:40;;;;;;;2.63;1.60;;;11.30;81.40;;;;;;5098849;28;20438;-42
2021/04/10 09:34:51;;;;;;;1.60;1.33;;;11.30;80.60;;;;;;5100770;28;20448;-42
2021/04/10 09:37:20;;;;;;;1.73;1.40;;;11.60;80.30;;;;;;5102254;28;20688;-41
2021/04/10 09:39:52;;;;;;;1.80;1.40;;;11.60;79.70;;;;;;5103328;28;20478;-42
2021/04/10 09:45:05;;;;;;;5.40;2.20;;;11.70;79.10;;;;;;5088979;28;20792;-40
2021/04/10 09:47:57;;;;;;;7.47;1.63;;;11.70;79.30;;;;;;5103312;28;20433;-42
2021/04/10 09:50:34;;;;;;;7.23;1.70;;;11.80;78.20;;;;;;5101499;28;20688;-42
2021/04/10 09:53:05;;;;;;;2.40;1.00;;;11.60;77.70;;;;;;5101991;28;20863;-40
2021/04/10 09:55:36;;;;;;;2.03;1.43;;;11.50;78.00;;;;;;5101758;28;20418;-41
2021/04/10 09:58:07;;;;;;;1.37;0.90;;;11.30;78.40;;;;;;5102310;28;20421;-42
2021/04/10 10:00:47;;;;;;;3.23;1.30;;;11.20;78.20;;;;;;5102000;28;20456;-41
2021/04/10 10:03:23;;;;;;;2.97;1.40;;;11.00;78.50;;;;;;5102006;28;20473;-42
2021/04/10 10:05:51;;;;;;;3.20;1.83;;;11.10;78.60;;;;;;5102528;28;20513;-41
2021/04/10 10:08:28;;;;;;;3.87;1.90;;;11.20;78.30;;;;;;5102293;28;20840;-42
2021/04/10 10:10:56;;;;;;;8.83;1.93;;;11.30;77.90;;;;;;5102639;28;20417;-42
2021/04/10 10:13:24;;;;;;;7.13;1.90;;;11.50;77.70;;;;;;5101979;28;20535;-42
2021/04/10 10:15:51;;;;;;;1.60;1.50;;;11.70;77.30;;;;;;5101375;28;20484;-39
2021/04/10 10:18:19;;;;;;;3.57;1.30;;;11.90;77.20;;;;;;5101376;28;20457;-42
2021/04/10 10:20:58;;;;;;;2.47;1.50;;;12.20;76.90;;;;;;5100260;28;20516;-42
2021/04/10 10:23:28;;;;;;;2.80;1.77;;;12.30;75.80;;;;;;5101840;28;20805;-39
2021/04/10 10:26:05;;;;;;;1.50;1.40;;;12.60;75.40;;;;;;5101313;28;20760;-40
2021/04/10 10:28:31;;;;;;;2.07;1.70;;;12.60;74.90;;;;;;5102024;28;20424;-42
2021/04/10 10:31:06;;;;;;;1.73;1.20;;;12.70;74.00;;;;;;5100562;28;20868;-41
2021/04/10 10:33:31;;;;;;;2.67;2.07;;;12.70;74.00;;;;;;5081603;28;20420;-42
2021/04/10 10:36:00;;;;;;;3.60;1.40;;;12.70;73.90;;;;;;5100696;28;20517;-42
2021/04/10 10:38:30;;;;;;;2.60;1.20;;;12.70;74.00;;;;;;5100643;28;20180;-41
2021/04/10 10:40:55;;;;;;;2.33;1.37;;;12.80;73.60;;;;;;5079726;28;20418;-43
2021/04/10 10:43:24;;;;;;;3.73;1.40;;;12.90;73.70;;;;;;5099645;28;20465;-42
2021/04/10 10:46:00;;;;;;;2.70;1.70;;;12.70;73.20;;;;;;5098562;28;20196;-42
2021/04/10 10:48:26;;;;;;;2.90;1.47;;;12.70;72.80;;;;;;5099348;28;20593;-42
2021/04/10 10:51:13;;;;;;;2.53;2.00;;;12.80;73.00;;;;;;5098660;28;20427;-42
2021/04/10 10:53:50;;;;;;;1.77;1.53;;;13.20;72.30;;;;;;5098487;28;20555;-42
2021/04/10 10:56:29;;;;;;;3.23;1.77;;;13.10;71.00;;;;;;5099577;28;20434;-41
2021/04/10 10:58:57;;;;;;;3.33;2.27;;;13.20;71.50;;;;;;5098530;28;20423;-42
2021/04/10 11:01:28;;;;;;;3.13;2.60;;;13.40;70.90;;;;;;5098921;28;20875;-43
2021/04/10 11:04:17;;;;;;;2.83;1.83;;;13.50;70.50;;;;;;5098929;28;20458;-42
2021/04/10 11:06:50;;;;;;;2.77;2.27;;;13.40;69.90;;;;;;5098779;28;20438;-42
2021/04/10 11:09:25;;;;;;;4.03;1.50;;;13.80;68.90;;;;;;5097409;28;20668;-42
2021/04/10 11:11:54;;;;;;;2.00;1.53;;;13.80;68.20;;;;;;5078811;28;20808;-42
2021/04/10 11:14:26;;;;;;;2.17;1.17;;;13.90;67.80;;;;;;5096122;28;20473;-42
2021/04/10 11:16:53;;;;;;;4.03;2.33;;;14.30;66.40;;;;;;5096434;28;20442;-42
2021/04/10 11:19:40;;;;;;;11.60;2.17;;;14.20;66.50;;;;;;5077458;28;20426;-43
2021/04/10 11:22:08;;;;;;;2.20;1.50;;;14.70;65.20;;;;;;5096866;28;20427;-39
2021/04/10 11:24:35;;;;;;;4.00;2.10;;;14.90;64.50;;;;;;5098115;28;20466;-41
2021/04/10 11:27:10;;;;;;;2.00;1.03;;;15.00;62.70;;;;;;5095988;28;20434;-42
2021/04/10 11:29:37;;;;;;;1.20;1.00;;;14.60;62.50;;;;;;5096275;28;20475;-40
2021/04/10 11:32:21;;;;;;;2.27;1.47;;;14.50;62.80;;;;;;5061707;28;20431;-40
2021/04/10 11:34:47;;;;;;;1.70;1.30;;;14.80;61.40;;;;;;5094849;28;20446;-42
2021/04/10 11:37:17;;;;;;;1.50;1.27;;;15.00;60.40;;;;;;5095211;28;20523;-43
2021/04/10 11:39:51;;;;;;;1.60;1.10;;;15.00;60.20;;;;;;5095687;28;20476;-42
2021/04/10 11:42:26;;;;;;;3.13;1.37;;;14.90;59.70;;;;;;5097807;28;20662;-41
2021/04/10 11:44:53;;;;;;;2.17;1.00;;;15.00;58.80;;;;;;5097776;28;20465;-42
2021/04/10 11:47:24;;;;;;;1.20;1.00;;;15.10;58.90;;;;;;5098059;28;20748;-43
2021/04/10 11:49:50;;;;;;;1.47;1.37;;;15.30;58.50;;;;;;5099092;28;20446;-43
2021/04/10 11:52:17;;;;;;;1.50;1.00;;;15.50;58.30;;;;;;5098858;28;20465;-43
2021/04/10 11:54:43;;;;;;;2.70;1.20;;;15.80;58.70;;;;;;5096801;28;20513;-42
2021/04/10 11:57:27;;;;;;;3.27;1.47;;;16.30;57.30;;;;;;5098004;28;20521;-42
2021/04/10 12:00:00;;;;;;;2.13;1.33;;;16.40;55.90;;;;;;5098466;28;20180;-43
2021/04/10 12:02:26;;;;;;;1.80;1.20;;;16.50;55.00;;;;;;5079770;28;20465;-43
2021/04/10 12:04:52;;;;;;;1.60;1.07;;;16.50;54.70;;;;;;5096819;28;20768;-43
2021/04/10 12:07:17;;;;;;;2.40;1.43;;;16.60;54.70;;;;;;5078732;28;20180;-43
2021/04/10 12:09:43;;;;;;;1.50;0.90;;;16.90;54.40;;;;;;5098079;28;20421;-43
2021/04/10 12:12:10;;;;;;;1.57;1.00;;;17.30;53.20;;;;;;5097793;28;20180;-44
2021/04/10 12:14:39;;;;;;;1.90;0.93;;;17.90;56.20;;;;;;5097398;28;20288;-44
2021/04/10 12:17:04;;;;;;;1.57;0.80;;;18.70;56.20;;;;;;5097954;28;20697;-44
2021/04/10 12:19:30;;;;;;;3.10;1.10;;;19.60;55.00;;;;;;5097419;28;20426;-44
2021/04/10 12:21:56;;;;;;;1.50;0.80;;;20.90;51.40;;;;;;5098175;28;20196;-45
2021/04/10 12:24:22;;;;;;;2.20;1.00;;;21.90;48.70;;;;;;5098588;28;20461;-40
2021/04/10 12:26:48;;;;;;;1.30;0.80;;;22.50;46.70;;;;;;5097977;28;20222;-44
2021/04/10 12:29:14;;;;;;;2.23;0.83;;;23.70;43.70;;;;;;5097639;28;20268;-44
2021/04/10 12:31:40;;;;;;;2.63;1.07;;;25.20;40.90;;;;;;5098499;28;20669;-44
2021/04/10 12:34:06;;;;;;;3.50;1.00;;;26.70;38.80;;;;;;5079441;28;20415;-44
2021/04/10 12:36:32;;;;;;;2.53;1.40;;;28.00;35.10;;;;;;5096991;28;20445;-45
2021/04/10 12:38:58;;;;;;;2.47;1.10;;;27.80;33.70;;;;;;5096867;28;20241;-44
2021/04/10 12:41:25;;;;;;;1.70;1.33;;;27.60;33.90;;;;;;5097559;28;20445;-44
2021/04/10 12:43:51;;;;;;;2.23;1.10;;;27.00;33.80;;;;;;5098345;28;20461;-44
2021/04/10 12:46:19;;;;;;;1.80;1.33;;;26.50;34.30;;;;;;5098200;28;20430;-43
2021/04/10 12:48:44;;;;;;;1.13;0.87;;;26.20;33.70;;;;;;5096333;28;20895;-44
2021/04/10 12:51:10;;;;;;;3.00;1.00;;;25.80;33.50;;;;;;5096011;28;20545;-44
2021/04/10 12:53:36;;;;;;;2.80;1.20;;;25.60;31.10;;;;;;5096723;28;20447;-44
2021/04/10 12:56:02;;;;;;;2.00;1.30;;;25.20;31.40;;;;;;5097929;28;20176;-44
2021/04/10 12:58:27;;;;;;;1.83;1.50;;;25.10;31.90;;;;;;5098229;28;20410;-44
2021/04/10 13:00:53;;;;;;;1.40;0.90;;;25.20;31.40;;;;;;5097799;28;20272;-43